Terminal Aerodrome Forecast
Issued by NWS Greer, SC

Home | Current Version | Previous Version | Text Only | Print | Product List | Glossary On
Versions: 1 2 3 4 5 6 7 8 9 10 11 12 13 14 15 16 17 18 19 20 21 22 23 24 25
000
FTUS42 KGSP 220149 AAA
TAFCLT
TAF AMD
KCLT 220149Z 2202/2224 35004KT P6SM VCSH SCT025 BKN050
      TEMPO 2202/2206 6SM -SHRA BKN025
     FM220600 34003KT 5SM BR BKN025
     FM221000 33004KT 6SM BR SCT045
     FM221300 34005KT P6SM SCT150=

USA.gov is the U.S. government's official web portal to all federal, state and local government web resources and services.